This is the latest recevied weather packets stored in our database for station/object N7AWM. If no packets are shown the sender has not sent any weather packets the latest 10 day(s).
| Time | Temp. | Humidity | Pressure | Rain* | Wind** | Luminosity | Snow |
|---|---|---|---|---|---|---|---|
| 1777659950 | 20° C | 44% | 1014.3 hPa | 0 mm | - | - | - |
| 1777659110 | 18.89° C | 48% | 1014.4 hPa | 0 mm | - | - | - |
| 1777658270 | 18.89° C | 49% | 1014.4 hPa | 0 mm | - | - | - |
| 1777657430 | 18.33° C | 49% | 1014.5 hPa | 0 mm | - | - | - |
| 1777656590 | 17.78° C | 50% | 1014.6 hPa | 0 mm | - | - | - |
| 1777655750 | 17.78° C | 49% | 1014.7 hPa | 0 mm | - | - | - |
| 1777654910 | 16.67° C | 48% | 1014.7 hPa | 0 mm | - | - | - |
| 1777654070 | 16.67° C | 51% | 1014.7 hPa | 0 mm | - | - | - |
| 1777653230 | 16.11° C | 51% | 1014.8 hPa | 0 mm | - | - | - |
| 1777652390 | 15° C | 54% | 1014.9 hPa | 0 mm | - | - | - |
| 1777651550 | 14.44° C | 56% | 1015 hPa | 0 mm | - | - | - |
| 1777650710 | 14.44° C | 54% | 1015 hPa | 0 mm | - | - | - |
| 1777649871 | 15° C | 54% | 1015.1 hPa | 0 mm | - | - | - |
| 1777649031 | 15.56° C | 54% | 1015 hPa | 0 mm | - | - | - |
| 1777648191 | 14.44° C | 56% | 1015 hPa | 0 mm | - | - | - |
| 1777647351 | 12.78° C | 59% | 1015.1 hPa | 0 mm | - | - | - |
| 1777646511 | 12.22° C | 61% | 1015.1 hPa | 0 mm | - | - | - |
| 1777645671 | 11.67° C | 61% | 1015 hPa | 0 mm | - | - | - |
| 1777644831 | 11.67° C | 61% | 1014.9 hPa | 0 mm | - | - | - |
| 1777643991 | 10.56° C | 62% | 1014.7 hPa | 0 mm | - | - | - |
| 1777643151 | 10° C | 64% | 1014.6 hPa | 0 mm | - | - | - |
| 1777642311 | 8.33° C | 71% | 1014.6 hPa | 0 mm | - | - | - |
| 1777641471 | 7.78° C | 69% | 1014.4 hPa | 0 mm | - | - | - |
| 1777640631 | 7.78° C | 69% | 1014.3 hPa | 0 mm | - | - | - |
| 1777639791 | 7.78° C | 70% | 1014.3 hPa | 0 mm | - | - | - |
* Rain latest hour (hover to see other rain measurements)
** Current wind speed in m/s (hover to see current wind gust speed)